• Join FlightAware (Why Join?)
  • Login
  • US Flag 
11:05AM EST


 

Airport Tracker/Info


-or-


 

Live Flight TrackerFlight Track Log ✈ N120FS ✈ 18-May-2013 ✈ 1A5 - KHNB

Flight Track Log - Related Links

Times and Time Zones

All times are in EDT time to prevent confusion due to time zone crossing. See the N120FS flight status page for this flight to view local times or setup timezone preferences in your user account.

Time Position Orientation Groundspeed Altitude Reporting Facility
EDT Latitude Longitude Course Direction KTS MPH feet Rate Location/Type
01:43PM 35.4937 -83.7132 314° West  Level FlightAware Approximate
01:44PM 35.5363 -83.7680 314° West  Level FlightAware Approximate
01:44PM 35.0736 -83.3486 314° West 230 265 7,900  Level Atlanta Center
01:46PM 35.1181 -83.4497 298° West 111 128 24,000 5,340 Climbing Atlanta Center
01:47PM 35.1578 -83.4925 319° Northwest 154 177 24,000  Level Atlanta Center
01:48PM 35.2039 -83.5406 320° Northwest 179 206 24,000 -3,300 Level Atlanta Center
01:49PM 35.2458 -83.5811 322° Northwest 197 227 17,400 -2,640 Descending Atlanta Center
01:50PM 35.2858 -83.6267 317° Northwest 197 227 18,800 1,380 Climbing Atlanta Center
01:51PM 35.3275 -83.6697 320° Northwest 197 227 20,200 1,380 Climbing Atlanta Center
01:52PM 35.3694 -83.7178 317° Northwest 197 227 21,600 1,200 Climbing Atlanta Center
01:53PM 35.4114 -83.7583 322° Northwest 197 227 22,700 900 Climbing Atlanta Center
01:54PM 35.4553 -83.8067 318° Northwest 202 232 23,500 600 Climbing Atlanta Center
01:55PM 35.5011 -83.8550 319° Northwest 207 238 24,000 240 Climbing Atlanta Center
01:56PM 35.5533 -83.9136 318° Northwest 226 260 24,000  Level Atlanta Center
01:57PM 35.6078 -83.9697 320° Northwest 242 278 24,000  Level Atlanta Center
01:58PM 35.6619 -84.0286 319° Northwest 253 291 24,000  Level Atlanta Center
01:59PM 35.7161 -84.0900 317° Northwest 260 299 24,000  Level Atlanta Center
02:00PM 35.7725 -84.1489 320° Northwest 265 305 24,000  Level Atlanta Center
02:01PM 35.8286 -84.2078 320° Northwest 265 305 24,000  Level Atlanta Center
02:02PM 35.8828 -84.2694 317° Northwest 265 305 24,000  Level Atlanta Center
02:03PM 35.9369 -84.3286 319° Northwest 265 305 24,000  Level Atlanta Center
02:04PM 35.9931 -84.3878 320° Northwest 265 305 24,000  Level Atlanta Center
02:05PM 36.0472 -84.4469 319° Northwest 265 305 24,000  Level Atlanta Center
02:07PM 36.1575 -84.5669 319° Northwest 264 304 24,000  Level Indianapolis Center
02:08PM 36.2131 -84.6267 319° Northwest 266 306 24,000  Level Indianapolis Center
02:09PM 36.2672 -84.6875 318° Northwest 264 304 24,000  Level Indianapolis Center
02:10PM 36.3217 -84.7475 318° Northwest 263 303 24,000  Level Indianapolis Center
02:11PM 36.3767 -84.8078 319° Northwest 265 305 24,000  Level Indianapolis Center
02:12PM 36.4314 -84.8683 318° Northwest 264 304 24,000  Level Indianapolis Center
02:13PM 36.4972 -84.9414 318° Northwest 265 305 24,000  Level Indianapolis Center
02:14PM 36.5517 -85.0022 318° Northwest 264 304 24,000  Level Indianapolis Center
02:15PM 36.6053 -85.0636 317° Northwest 263 303 24,000  Level Indianapolis Center
02:16PM 36.6617 -85.1239 319° Northwest 267 307 24,000  Level Indianapolis Center
02:17PM 36.7158 -85.1853 318° Northwest 264 304 24,000  Level Indianapolis Center
02:18PM 36.7706 -85.2461 318° Northwest 263 303 24,000  Level Indianapolis Center
02:19PM 36.8244 -85.3081 317° Northwest 264 304 24,000  Level Indianapolis Center
02:20PM 36.8789 -85.3683 318° Northwest 264 304 24,000  Level Indianapolis Center
02:21PM 36.9328 -85.4300 318° Northwest 264 304 24,000  Level Indianapolis Center
02:22PM 36.9981 -85.5036 318° Northwest 263 303 24,000  Level Indianapolis Center
02:23PM 37.0519 -85.5625 319° Northwest 267 307 24,000 -240 Level Indianapolis Center
02:24PM 37.1064 -85.6267 317° Northwest 267 307 23,600 -540 Descending Indianapolis Center
02:25PM 37.1647 -85.6922 318° Northwest 278 320 22,900 -780 Descending Indianapolis Center
02:27PM 37.2250 -85.7611 318° Northwest 287 330 22,100 -480 Descending Indianapolis Center
02:28PM 37.2836 -85.8286 318° Northwest 283 326 22,000 -60 Descending Indianapolis Center
02:29PM 37.3392 -85.8922 318° Northwest 271 312 22,000  Level Indianapolis Center
02:30PM 37.3942 -85.9547 318° Northwest 263 303 22,000 -360 Level Indianapolis Center
02:31PM 37.4603 -86.0306 318° Northwest 273 314 21,300 -960 Descending Indianapolis Center
02:32PM 37.5200 -86.0989 318° Northwest 286 329 20,100 -1,080 Descending Indianapolis Center
02:33PM 37.5733 -86.1611 317° Northwest 296 341 19,200 -1,260 Descending Indianapolis Center
02:34PM 37.6414 -86.2397 318° Northwest 293 337 17,600 -1,560 Descending Indianapolis Center
02:35PM 37.7031 -86.3108 318° Northwest 297 342 16,100 -1,560 Descending Indianapolis Center
02:36PM 37.7644 -86.3825 317° Northwest 298 343 14,500 -1,560 Descending Indianapolis Center
02:37PM 37.8289 -86.4586 317° Northwest 298 343 13,000 -1,500 Descending Indianapolis Center
02:38PM 37.8872 -86.5275 317° Northwest 290 334 11,500 -1,020 Descending Indianapolis Center
02:39PM 37.9383 -86.6006 312° West 285 328 11,000 -300 Descending Indianapolis Center
02:40PM 37.9703 -86.6850 296° West 265 305 11,000 -540 Level Indianapolis Center
02:41PM 38.0042 -86.7714 296° West 269 310 9,900 -1,260 Descending Indianapolis Center
02:42PM 38.0544 -86.8419 312° West 288 331 8,500 -1,320 Descending Indianapolis Center
02:43PM 38.1164 -86.7961 30° Northeast 261 300 7,300 -2,820 Descending Indianapolis Center
02:44PM 38.1881 -86.7311 35° Northeast 264 304 2,800 -2,400 Descending Indianapolis Center
02:45PM 38.2369 -86.6892 34° Northeast 233 268 2,500 -180 Descending Indianapolis Center
02:46PM 38.2719 -86.7019 344° North 209 241 2,500  Level Indianapolis Center
02:47PM 38.2561 -86.7592 251° West 188 216 2,500  Level Indianapolis Center
02:48PM 38.2486 -86.8311 262° West 185 213 2,500  Level Indianapolis Center